Time;durP1;ratioP1;P1;durP2;ratioP2;P2;SDS_P1;SDS_P2;PMS_P1;PMS_P2;Temp;Humidity;BMP_temperature;BMP_pressure;BME280_temperature;BME280_humidity;BME280_pressure;Samples;Min_cycle;Max_cycle;Signal;HPM_P1;HPM_P2
2022/02/27 00:01:17;;;;;;;8.23;3.03;;;;;;;9.74;55.56;101246.91;5053007;28;20035;-85
2022/02/27 00:03:43;;;;;;;7.35;3.05;;;;;;;9.51;55.80;101245.44;5051220;28;20043;-84
2022/02/27 00:06:08;;;;;;;15.88;3.65;;;;;;;9.75;55.55;101245.97;5050640;28;20581;-84
2022/02/27 00:08:34;;;;;;;8.65;2.75;;;;;;;9.78;55.24;101242.38;5051940;28;20124;-84
2022/02/27 00:10:59;;;;;;;6.40;2.65;;;;;;;9.90;54.58;101245.19;5051145;28;20027;-85
2022/02/27 00:13:24;;;;;;;9.52;3.00;;;;;;;9.81;55.18;101243.03;5051012;28;20134;-84
2022/02/27 00:15:50;;;;;;;18.60;3.53;;;;;;;9.91;54.59;101246.91;5050677;28;20029;-84
2022/02/27 00:18:15;;;;;;;11.18;3.22;;;;;;;9.61;55.76;101245.84;5049781;28;20052;-85
2022/02/27 00:20:41;;;;;;;11.07;3.45;;;;;;;9.50;55.23;101234.13;5049907;28;20497;-84
2022/02/27 00:23:06;;;;;;;7.15;2.67;;;;;;;9.59;55.08;101238.03;5051188;28;20025;-84
2022/02/27 00:25:31;;;;;;;13.70;2.88;;;;;;;9.57;54.76;101233.81;5051445;28;20033;-84
2022/02/27 00:27:57;;;;;;;13.77;3.22;;;;;;;9.59;54.82;101229.34;5049483;28;20027;-84
2022/02/27 00:30:22;;;;;;;10.65;3.20;;;;;;;9.56;54.89;101237.34;5050325;28;20515;-85
2022/02/27 00:32:47;;;;;;;15.27;2.85;;;;;;;9.60;54.53;101233.66;5051017;28;20368;-84
2022/02/27 00:35:13;;;;;;;14.65;3.35;;;;;;;9.38;54.72;101224.25;5051442;28;20022;-84
2022/02/27 00:37:38;;;;;;;11.23;3.28;;;;;;;9.51;54.19;101220.06;5040346;28;20129;-84
2022/02/27 00:40:05;;;;;;;9.32;2.75;;;;;;;9.72;53.49;101217.31;5031761;28;20037;-85
2022/02/27 00:42:31;;;;;;;15.10;3.35;;;;;;;9.64;53.82;101209.81;5041774;28;20395;-84
2022/02/27 00:44:56;;;;;;;12.60;3.08;;;;;;;9.77;53.72;101219.69;5051261;28;20029;-84
2022/02/27 00:47:22;;;;;;;14.35;3.53;;;;;;;9.75;53.58;101227.63;5050527;28;20033;-84
2022/02/27 00:49:47;;;;;;;13.07;2.40;;;;;;;9.81;53.52;101227.28;5051161;28;20112;-85
2022/02/27 00:52:13;;;;;;;14.32;2.90;;;;;;;9.85;53.38;101222.75;5043544;28;20520;-84
2022/02/27 00:54:38;;;;;;;12.13;3.05;;;;;;;9.74;53.56;101225.94;5031885;28;20490;-84
2022/02/27 00:57:04;;;;;;;12.25;3.00;;;;;;;9.55;53.51;101240.91;5044089;28;20059;-85
2022/02/27 00:59:30;;;;;;;11.35;3.03;;;;;;;9.77;53.32;101231.00;5050625;28;20478;-84
2022/02/27 01:01:55;;;;;;;8.18;2.60;;;;;;;9.94;52.66;101227.53;5050857;28;20036;-85
2022/02/27 01:04:20;;;;;;;11.13;3.03;;;;;;;9.72;53.29;101236.50;5050955;28;20017;-85
2022/02/27 01:06:46;;;;;;;15.80;3.40;;;;;;;9.62;53.38;101237.91;5045479;28;20033;-85
2022/02/27 01:09:11;;;;;;;15.07;3.50;;;;;;;9.71;53.11;101231.31;5037776;28;20052;-85
2022/02/27 01:11:36;;;;;;;8.73;2.70;;;;;;;9.73;52.77;101239.97;5051125;28;20379;-85
2022/02/27 01:14:02;;;;;;;9.05;2.65;;;;;;;9.42;54.01;101238.91;5050864;28;20351;-86
2022/02/27 01:16:28;;;;;;;7.60;2.45;;;;;;;9.55;53.43;101240.91;5050517;28;20032;-85
2022/02/27 01:18:54;;;;;;;10.80;2.90;;;;;;;9.55;53.65;101241.75;5050777;28;20033;-85
2022/02/27 01:21:19;;;;;;;11.90;2.67;;;;;;;9.71;53.36;101241.81;5050709;28;20479;-85
2022/02/27 01:23:46;;;;;;;11.88;2.90;;;;;;;9.74;53.03;101241.66;5066371;28;20057;-86
2022/02/27 01:26:12;;;;;;;16.60;4.00;;;;;;;9.55;53.63;101248.78;5051254;28;20479;-86
2022/02/27 01:28:38;;;;;;;11.68;3.03;;;;;;;9.46;53.83;101253.56;5050564;28;20036;-85
2022/02/27 01:31:04;;;;;;;12.88;3.42;;;;;;;9.21;54.18;101245.19;5048482;28;20055;-85
2022/02/27 01:33:30;;;;;;;16.42;2.53;;;;;;;9.27;54.17;101242.28;5048630;28;20138;-85
2022/02/27 01:35:55;;;;;;;14.30;3.40;;;;;;;9.42;54.05;101230.16;5047932;28;20108;-85
2022/02/27 01:38:21;;;;;;;16.80;3.47;;;;;;;9.63;53.46;101229.09;5052625;28;20033;-85
2022/02/27 01:40:46;;;;;;;10.55;2.58;;;;;;;9.61;53.07;101220.44;5054321;28;20128;-86
2022/02/27 01:43:11;;;;;;;12.82;3.22;;;;;;;9.67;52.84;101214.06;5053828;28;20032;-85
2022/02/27 01:45:37;;;;;;;14.55;2.90;;;;;;;9.56;53.28;101204.13;5053521;28;20029;-84
2022/02/27 01:48:02;;;;;;;13.50;3.22;;;;;;;9.39;53.57;101199.72;5054172;28;20048;-84
2022/02/27 01:50:28;;;;;;;12.30;2.70;;;;;;;9.51;53.36;101196.47;5049748;28;20120;-83
2022/02/27 01:52:53;;;;;;;15.65;3.13;;;;;;;9.58;53.55;101193.53;5034105;28;20025;-84
2022/02/27 01:55:19;;;;;;;16.27;2.42;;;;;;;9.62;53.15;101200.34;5044447;28;20394;-84
2022/02/27 01:57:45;;;;;;;14.60;2.63;;;;;;;9.38;54.11;101202.41;5054108;28;20083;-84
2022/02/27 02:00:12;;;;;;;10.45;2.78;;;;;;;9.59;53.41;101192.63;5052251;28;20390;-84
2022/02/27 02:02:37;;;;;;;10.88;3.75;;;;;;;9.67;53.72;101188.66;5053049;28;20091;-84
2022/02/27 02:05:03;;;;;;;6.97;2.42;;;;;;;9.93;52.60;101195.19;5053954;28;20421;-84
2022/02/27 02:07:28;;;;;;;9.07;2.75;;;;;;;9.49;53.92;101198.31;5053830;28;20033;-84
2022/02/27 02:09:54;;;;;;;8.57;3.05;;;;;;;9.63;53.67;101186.28;5053407;28;20079;-84
2022/02/27 02:12:19;;;;;;;11.90;3.05;;;;;;;9.37;54.56;101180.59;5053684;28;20029;-85
2022/02/27 02:14:45;;;;;;;15.10;3.25;;;;;;;9.49;54.29;101182.59;5056483;28;20027;-85
2022/02/27 02:17:10;;;;;;;12.10;3.20;;;;;;;9.58;53.60;101177.81;5058729;28;20032;-84
2022/02/27 02:19:37;;;;;;;14.60;4.03;;;;;;;9.51;53.97;101178.13;5047478;28;20029;-85
2022/02/27 02:22:04;;;;;;;22.15;3.70;;;;;;;9.68;53.69;101185.13;5042221;28;20025;-85
2022/02/27 02:24:30;;;;;;;12.23;3.80;;;;;;;9.39;54.10;101186.63;5053096;28;20025;-85
2022/02/27 02:26:56;;;;;;;15.60;3.42;;;;;;;9.51;54.07;101178.13;5053172;28;20029;-85
2022/02/27 02:29:23;;;;;;;7.85;3.28;;;;;;;9.67;54.15;101179.97;5054411;28;20033;-85
2022/02/27 02:31:50;;;;;;;11.38;3.35;;;;;;;9.69;53.99;101172.88;5056644;28;20024;-85
2022/02/27 02:34:18;;;;;;;10.75;3.35;;;;;;;9.30;55.01;101181.84;5053033;28;20383;-85
2022/02/27 02:36:45;;;;;;;13.65;3.58;;;;;;;9.44;54.76;101176.75;5052287;28;20032;-85
2022/02/27 02:39:13;;;;;;;11.75;3.10;;;;;;;9.54;54.11;101185.00;5053860;28;20090;-85
2022/02/27 02:41:39;;;;;;;8.48;3.20;;;;;;;9.39;54.96;101176.13;5053968;28;20033;-85
2022/02/27 02:44:06;;;;;;;20.42;4.82;;;;;;;9.55;54.79;101173.56;5053955;28;20071;-85
2022/02/27 02:46:35;;;;;;;21.25;4.20;;;;;;;9.59;54.62;101171.66;5053514;28;20055;-85
2022/02/27 02:49:00;;;;;;;11.93;3.47;;;;;;;9.70;54.37;101178.03;5055721;28;20104;-85
2022/02/27 02:51:26;;;;;;;14.32;3.55;;;;;;;9.50;54.77;101165.97;5053870;28;20037;-85
2022/02/27 02:53:51;;;;;;;11.55;3.25;;;;;;;9.34;55.19;101170.28;5048674;28;20092;-85
2022/02/27 02:56:17;;;;;;;14.73;4.18;;;;;;;9.82;54.50;101173.94;5055483;28;20025;-85
2022/02/27 02:58:43;;;;;;;12.95;4.10;;;;;;;9.75;53.93;101164.66;5054136;28;20415;-85
2022/02/27 03:01:10;;;;;;;16.45;4.13;;;;;;;9.64;54.74;101167.03;5036637;28;20036;-85
2022/02/27 03:03:37;;;;;;;17.33;4.50;;;;;;;9.63;54.75;101165.31;5052958;28;20107;-85
2022/02/27 03:06:03;;;;;;;17.90;3.97;;;;;;;9.77;54.03;101159.34;5051632;28;20035;-85
2022/02/27 03:08:29;;;;;;;19.38;4.32;;;;;;;9.72;54.44;101159.59;5053147;28;20502;-85
2022/02/27 03:10:55;;;;;;;17.75;4.45;;;;;;;9.48;55.37;101148.63;5053256;28;20021;-85
2022/02/27 03:13:21;;;;;;;14.88;4.68;;;;;;;9.61;54.77;101140.97;5048013;28;20025;-85
2022/02/27 03:15:46;;;;;;;25.02;7.25;;;;;;;9.46;55.15;101138.22;5052551;28;20041;-85
2022/02/27 03:18:11;;;;;;;12.52;4.40;;;;;;;9.36;55.82;101142.25;5051570;28;20033;-85
2022/02/27 03:20:37;;;;;;;17.58;4.38;;;;;;;9.34;55.76;101141.47;5044648;28;20437;-85
2022/02/27 03:23:02;;;;;;;16.15;4.85;;;;;;;9.60;55.25;101152.38;5040814;28;20037;-85
2022/02/27 03:25:28;;;;;;;14.38;5.05;;;;;;;9.43;55.81;101146.22;5052526;28;20029;-85
2022/02/27 03:27:53;;;;;;;12.93;4.28;;;;;;;9.70;55.02;101150.97;5049213;28;20123;-85
2022/02/27 03:30:19;;;;;;;13.60;4.50;;;;;;;9.52;55.32;101145.75;5056429;28;20029;-85
2022/02/27 03:32:48;;;;;;;17.98;5.43;;;;;;;9.13;56.60;101146.84;5066002;28;20041;-84
2022/02/27 03:35:14;;;;;;;16.30;5.03;;;;;;;9.56;55.10;101141.22;5063929;28;20048;-85
2022/02/27 03:37:40;;;;;;;21.15;5.05;;;;;;;9.57;55.46;101142.03;5063456;28;20033;-85
2022/02/27 03:40:06;;;;;;;15.13;4.53;;;;;;;9.49;55.40;101135.41;5064623;28;20372;-85
2022/02/27 03:42:31;;;;;;;13.43;6.93;;;;;;;9.72;54.53;101128.13;5060882;28;20037;-85
2022/02/27 03:44:57;;;;;;;15.68;6.00;;;;;;;9.57;55.29;101123.69;5062338;28;20074;-84
2022/02/27 03:47:22;;;;;;;18.98;5.75;;;;;;;9.50;55.29;101124.00;5058101;28;20074;-85
2022/02/27 03:49:48;;;;;;;13.25;5.07;;;;;;;9.10;56.32;101118.19;5053592;28;20025;-85
2022/02/27 03:52:13;;;;;;;13.90;4.88;;;;;;;9.22;56.41;101123.72;5037663;28;20064;-85
2022/02/27 03:54:39;;;;;;;18.55;4.65;;;;;;;9.27;56.51;101106.00;5052845;28;20025;-85
2022/02/27 03:57:04;;;;;;;12.85;4.55;;;;;;;9.16;56.15;101105.69;5052984;28;20025;-85
2022/02/27 03:59:30;;;;;;;24.05;5.70;;;;;;;9.34;56.20;101091.69;5052500;28;20056;-85
2022/02/27 04:01:55;;;;;;;17.27;5.65;;;;;;;9.24;55.92;101098.28;5052622;28;20048;-86
2022/02/27 04:04:21;;;;;;;17.15;4.75;;;;;;;9.38;55.96;101098.44;5052700;28;20032;-86
2022/02/27 04:06:46;;;;;;;15.68;5.00;;;;;;;9.21;56.21;101093.22;5052402;28;20057;-85
2022/02/27 04:09:12;;;;;;;17.30;5.18;;;;;;;9.30;55.91;101079.63;5052008;28;20426;-85
2022/02/27 04:11:37;;;;;;;18.48;5.38;;;;;;;9.24;56.02;101083.44;5052088;28;20479;-85
2022/02/27 04:14:03;;;;;;;15.68;5.80;;;;;;;9.30;55.94;101082.25;5051372;28;20025;-85
2022/02/27 04:16:28;;;;;;;16.10;4.95;;;;;;;9.16;56.25;101080.34;5051746;28;20036;-86
2022/02/27 04:18:53;;;;;;;17.58;4.82;;;;;;;9.23;56.58;101083.50;5050343;28;20116;-85
2022/02/27 04:21:19;;;;;;;16.45;5.05;;;;;;;9.30;56.02;101095.34;5051511;28;20108;-85
2022/02/27 04:23:44;;;;;;;16.15;5.18;;;;;;;9.31;55.91;101081.34;5051769;28;20060;-86
2022/02/27 04:26:09;;;;;;;22.15;5.45;;;;;;;9.11;56.18;101074.50;5051168;28;20065;-85
2022/02/27 04:28:35;;;;;;;15.30;4.88;;;;;;;9.13;56.61;101072.66;5050993;28;20029;-85
2022/02/27 04:31:00;;;;;;;23.08;5.72;;;;;;;8.79;57.21;101068.25;5051383;28;20035;-85
2022/02/27 04:33:26;;;;;;;17.15;4.80;;;;;;;9.20;56.57;101068.81;5044574;28;20068;-85
2022/02/27 04:35:51;;;;;;;23.73;5.85;;;;;;;8.87;56.90;101072.19;5033884;28;20390;-84
2022/02/27 04:38:16;;;;;;;8.60;4.50;;;;;;;9.05;56.69;101069.59;5050855;28;20033;-85
2022/02/27 04:40:42;;;;;;;16.50;4.43;;;;;;;9.16;56.26;101071.63;5051310;28;20067;-86
2022/02/27 04:43:07;;;;;;;18.80;5.85;;;;;;;8.97;56.83;101056.88;5050644;28;20091;-86
2022/02/27 04:45:32;;;;;;;13.25;4.68;;;;;;;9.03;56.80;101061.78;5051238;28;20180;-86
2022/02/27 04:47:58;;;;;;;26.25;6.03;;;;;;;9.20;56.53;101067.94;5050697;28;20029;-85
2022/02/27 04:50:23;;;;;;;13.82;4.72;;;;;;;9.08;56.13;101070.28;5050831;28;20100;-85
2022/02/27 04:52:49;;;;;;;13.88;4.47;;;;;;;9.15;56.16;101072.59;5051106;28;20037;-85
2022/02/27 04:55:14;;;;;;;21.58;5.63;;;;;;;9.31;55.79;101060.38;5050561;28;20170;-85
2022/02/27 04:57:40;;;;;;;22.10;5.43;;;;;;;9.16;56.50;101075.09;5050111;28;20025;-85
2022/02/27 05:00:07;;;;;;;21.25;5.53;;;;;;;8.96;56.47;101064.81;5049177;28;20032;-85
2022/02/27 05:02:35;;;;;;;18.95;5.70;;;;;;;8.97;56.81;101064.72;5050903;28;20072;-85
2022/02/27 05:05:00;;;;;;;17.85;5.05;;;;;;;8.89;56.63;101072.13;5051461;28;20025;-85
2022/02/27 05:07:26;;;;;;;16.27;5.18;;;;;;;9.03;56.71;101066.19;5054582;28;20116;-85
2022/02/27 05:09:52;;;;;;;16.23;5.00;;;;;;;8.45;58.22;101059.44;5054321;28;20471;-85
2022/02/27 05:12:17;;;;;;;16.38;5.03;;;;;;;8.72;57.63;101052.00;5054824;28;20017;-85
2022/02/27 05:14:43;;;;;;;18.92;5.97;;;;;;;8.62;57.36;101064.72;5054011;28;20033;-85
2022/02/27 05:17:08;;;;;;;23.15;5.63;;;;;;;8.82;57.08;101062.88;5054951;28;20041;-85
2022/02/27 05:19:33;;;;;;;14.13;4.68;;;;;;;9.01;56.30;101068.88;5054453;28;20029;-85
2022/02/27 05:21:59;;;;;;;12.90;4.95;;;;;;;8.95;57.09;101057.88;5054089;28;20088;-85
2022/02/27 05:24:24;;;;;;;18.00;5.63;;;;;;;8.76;57.49;101052.72;5052777;28;20022;-85
2022/02/27 05:26:50;;;;;;;17.90;4.55;;;;;;;8.73;57.76;101057.19;5054409;28;20086;-84
2022/02/27 05:29:15;;;;;;;19.67;5.40;;;;;;;8.81;57.52;101061.19;5054166;28;20425;-85
2022/02/27 05:31:40;;;;;;;18.77;5.13;;;;;;;8.90;57.08;101065.94;5054503;28;20057;-85
2022/02/27 05:34:07;;;;;;;13.23;5.00;;;;;;;8.86;56.97;101067.88;5054573;28;20021;-85
2022/02/27 05:36:33;;;;;;;22.05;5.68;;;;;;;8.89;56.65;101067.72;5054596;28;20035;-85
2022/02/27 05:38:58;;;;;;;15.65;5.35;;;;;;;8.88;57.30;101062.56;5054119;28;20025;-85
2022/02/27 05:41:23;;;;;;;21.02;7.65;;;;;;;8.93;57.00;101050.09;5052990;28;20054;-84
2022/02/27 05:43:49;;;;;;;19.88;5.32;;;;;;;8.63;57.72;101053.34;5053849;28;20061;-85
2022/02/27 05:46:14;;;;;;;18.33;4.88;;;;;;;8.49;58.19;101055.75;5053968;28;20029;-85
2022/02/27 05:48:40;;;;;;;17.63;6.40;;;;;;;8.35;58.52;101064.25;5053600;28;20041;-84
2022/02/27 05:51:05;;;;;;;17.17;5.15;;;;;;;8.55;57.81;101063.34;5054393;28;20032;-85
2022/02/27 05:53:30;;;;;;;15.60;4.72;;;;;;;8.50;57.58;101054.84;5053747;28;20474;-84
2022/02/27 05:55:56;;;;;;;17.58;5.95;;;;;;;8.71;57.19;101056.41;5038523;28;20467;-85
2022/02/27 05:58:23;;;;;;;19.27;5.10;;;;;;;8.30;58.22;101055.78;5052816;28;20100;-84
2022/02/27 06:00:49;;;;;;;16.70;5.55;;;;;;;8.74;57.02;101060.63;5053834;28;20479;-85
2022/02/27 06:03:16;;;;;;;14.18;4.90;;;;;;;8.71;57.21;101058.19;5053487;28;20036;-84
2022/02/27 06:05:42;;;;;;;14.27;4.72;;;;;;;8.72;57.62;101059.88;5054077;28;20033;-85
2022/02/27 06:08:07;;;;;;;14.75;6.07;;;;;;;8.61;57.62;101060.41;5053469;28;20162;-85
2022/02/27 06:10:33;;;;;;;14.10;5.20;;;;;;;8.61;57.67;101060.41;5041841;28;20028;-85
2022/02/27 06:12:58;;;;;;;18.27;4.95;;;;;;;8.55;57.43;101071.19;5061257;28;20033;-85
2022/02/27 06:15:24;;;;;;;20.60;5.00;;;;;;;8.57;57.81;101071.09;5072032;28;20024;-85
2022/02/27 06:17:49;;;;;;;21.05;5.65;;;;;;;8.19;58.73;101069.34;5051357;28;20548;-85
2022/02/27 06:20:15;;;;;;;11.43;4.57;;;;;;;8.53;57.96;101066.03;5053339;28;20029;-85
2022/02/27 06:22:42;;;;;;;13.20;4.78;;;;;;;8.71;57.23;101061.66;5052815;28;20025;-85
2022/02/27 06:25:09;;;;;;;16.05;5.05;;;;;;;8.48;58.21;101075.00;5053465;28;20487;-85
2022/02/27 06:27:37;;;;;;;19.23;5.13;;;;;;;8.33;58.74;101073.94;5052804;28;20047;-85
2022/02/27 06:30:02;;;;;;;17.75;5.32;;;;;;;8.30;58.59;101081.94;5053463;28;20029;-85
2022/02/27 06:32:28;;;;;;;13.90;5.30;;;;;;;8.22;58.59;101084.94;5052977;28;20029;-85
2022/02/27 06:34:53;;;;;;;24.38;5.32;;;;;;;8.48;58.00;101088.09;5053504;28;20025;-85
2022/02/27 06:37:18;;;;;;;13.82;5.20;;;;;;;8.60;57.70;101084.88;5052797;28;20490;-86
2022/02/27 06:39:44;;;;;;;20.65;4.97;;;;;;;8.47;58.11;101095.13;5051412;28;20017;-86
2022/02/27 06:42:10;;;;;;;13.85;4.93;;;;;;;8.41;58.35;101097.13;5052876;28;20060;-86
2022/02/27 06:44:35;;;;;;;18.13;5.18;;;;;;;8.28;59.02;101089.88;5053046;28;20475;-85
2022/02/27 06:47:01;;;;;;;12.50;4.82;;;;;;;8.34;58.73;101100.03;5053093;28;20029;-85
2022/02/27 06:49:26;;;;;;;16.33;5.32;;;;;;;8.23;58.81;101101.47;5051581;28;20071;-85
2022/02/27 06:51:51;;;;;;;16.77;5.35;;;;;;;8.45;58.14;101109.16;5052631;28;20064;-85
2022/02/27 06:54:22;;;;;;;19.88;6.63;;;;;;;8.37;58.27;101104.25;5052655;28;20395;-85
2022/02/27 06:56:47;;;;;;;17.40;5.65;;;;;;;8.25;58.93;101110.94;5052487;28;20059;-85
2022/02/27 06:59:12;;;;;;;18.30;5.45;;;;;;;8.31;58.90;101110.66;5050826;28;20057;-85
2022/02/27 07:01:38;;;;;;;12.30;5.28;;;;;;;8.49;58.57;101118.56;5052156;28;20052;-86
2022/02/27 07:04:05;;;;;;;25.25;5.25;;;;;;;8.44;58.18;101117.97;5052467;28;20052;-85
2022/02/27 07:06:30;;;;;;;9.07;4.60;;;;;;;8.57;58.03;101113.84;5050712;28;20037;-85
2022/02/27 07:08:56;;;;;;;18.38;6.22;;;;;;;8.52;58.01;101114.03;5051051;28;20021;-84
2022/02/27 07:11:21;;;;;;;20.30;5.75;;;;;;;8.35;59.25;101108.72;5047581;28;20036;-83
2022/02/27 07:13:47;;;;;;;19.77;4.90;;;;;;;8.43;58.81;101098.81;5048616;28;20378;-84
2022/02/27 07:16:15;;;;;;;25.23;5.40;;;;;;;8.24;58.99;101104.00;5050806;28;20033;-84
2022/02/27 07:18:41;;;;;;;19.67;5.18;;;;;;;8.37;59.29;101093.81;5049795;28;20060;-84
2022/02/27 07:21:06;;;;;;;19.17;5.68;;;;;;;8.10;59.55;101090.75;5055019;28;20095;-84
2022/02/27 07:23:32;;;;;;;21.23;5.32;;;;;;;8.41;58.36;101089.28;5064837;28;20674;-84
2022/02/27 07:25:57;;;;;;;16.45;6.03;;;;;;;8.28;59.27;101075.94;5058868;28;20353;-84
2022/02/27 07:28:22;;;;;;;16.48;5.10;;;;;;;8.26;59.38;101076.00;5062982;28;20025;-84
2022/02/27 07:30:48;;;;;;;20.35;5.75;;;;;;;8.23;59.09;101068.28;5062131;28;20112;-84
2022/02/27 07:33:14;;;;;;;16.45;5.03;;;;;;;8.26;59.20;101073.38;5059030;28;20029;-84
2022/02/27 07:35:39;;;;;;;17.00;6.28;;;;;;;8.58;58.03;101064.94;5056258;28;20056;-84
2022/02/27 07:38:04;;;;;;;22.13;6.60;;;;;;;8.59;58.07;101067.50;5048061;28;20033;-85
2022/02/27 07:40:30;;;;;;;21.90;5.05;;;;;;;8.43;58.63;101074.38;5054057;28;20025;-85
2022/02/27 07:42:55;;;;;;;12.43;4.95;;;;;;;8.68;58.09;101082.72;5052697;28;20032;-84
2022/02/27 07:45:21;;;;;;;19.83;5.97;;;;;;;8.81;57.92;101076.91;5051764;28;20027;-84
2022/02/27 07:47:47;;;;;;;17.90;5.05;;;;;;;8.67;58.31;101080.22;5048111;28;20029;-84
2022/02/27 07:50:12;;;;;;;21.67;5.70;;;;;;;8.67;58.33;101081.06;5052384;28;20609;-84
2022/02/27 07:52:38;;;;;;;23.40;5.68;;;;;;;8.80;58.02;101067.34;5052019;28;20021;-84
2022/02/27 07:55:04;;;;;;;23.05;6.10;;;;;;;8.83;58.28;101069.81;5046321;28;20024;-84
2022/02/27 07:57:29;;;;;;;13.18;4.75;;;;;;;8.97;58.00;101067.34;5048265;28;20039;-86
2022/02/27 07:59:54;;;;;;;17.63;5.75;;;;;;;9.20;57.37;101075.78;5049796;28;20028;-84
2022/02/27 08:02:20;;;;;;;19.10;5.70;;;;;;;9.57;56.54;101074.72;5046694;28;20056;-84
2022/02/27 08:04:45;;;;;;;23.83;5.22;;;;;;;9.89;56.13;101078.25;5047559;28;20033;-85
2022/02/27 08:07:10;;;;;;;18.92;5.53;;;;;;;10.51;54.59;101091.47;5051423;28;20036;-85
2022/02/27 08:09:36;;;;;;;11.63;4.63;;;;;;;11.35;52.12;101092.72;5053569;28;20394;-85
2022/02/27 08:12:01;;;;;;;11.52;4.40;;;;;;;11.79;50.88;101097.06;5050797;28;20463;-84
2022/02/27 08:14:27;;;;;;;19.77;5.53;;;;;;;11.93;50.43;101100.63;5050369;28;20554;-84
2022/02/27 08:16:52;;;;;;;18.70;4.95;;;;;;;12.09;49.57;101088.22;5051497;28;20044;-84
2022/02/27 08:19:17;;;;;;;23.17;5.07;;;;;;;12.47;49.04;101100.69;5053844;28;20020;-84
2022/02/27 08:21:43;;;;;;;13.20;4.75;;;;;;;12.81;48.36;101095.84;5052254;28;20040;-84
2022/02/27 08:24:09;;;;;;;20.77;4.88;;;;;;;12.66;48.16;101092.44;5042105;28;20021;-84
2022/02/27 08:26:35;;;;;;;23.40;5.05;;;;;;;12.35;48.62;101099.69;5046453;28;20036;-84
2022/02/27 08:29:02;;;;;;;19.50;4.75;;;;;;;11.97;49.49;101094.25;5050288;28;20021;-84
2022/02/27 08:31:29;;;;;;;13.10;4.28;;;;;;;11.64;50.31;101090.94;5050751;28;20364;-84
2022/02/27 08:33:55;;;;;;;14.40;4.40;;;;;;;11.48;51.21;101093.66;5049115;28;20052;-85
2022/02/27 08:36:21;;;;;;;10.15;4.53;;;;;;;11.45;51.07;101098.25;5042659;28;20026;-85
2022/02/27 08:38:47;;;;;;;17.20;4.55;;;;;;;11.31;51.35;101080.69;5046984;28;20025;-84
2022/02/27 08:41:14;;;;;;;13.75;4.80;;;;;;;11.04;51.88;101068.28;5073463;28;20050;-85
2022/02/27 08:43:39;;;;;;;18.15;5.00;;;;;;;11.68;51.34;101067.94;5061180;28;20036;-84
2022/02/27 08:46:05;;;;;;;16.63;4.57;;;;;;;11.45;51.43;101066.69;5056658;28;20463;-83
2022/02/27 08:48:30;;;;;;;21.45;5.07;;;;;;;11.98;50.35;101075.72;5055105;28;20025;-84
2022/02/27 08:50:56;;;;;;;13.50;4.18;;;;;;;11.98;50.06;101069.63;5054018;28;20029;-85
2022/02/27 08:53:21;;;;;;;15.55;4.38;;;;;;;11.86;50.29;101076.47;5050554;28;20029;-84
2022/02/27 08:55:47;;;;;;;15.98;4.88;;;;;;;11.61;51.10;101066.59;5035199;28;20068;-84
2022/02/27 08:58:13;;;;;;;14.60;5.32;;;;;;;11.24;51.87;101066.25;5052638;28;20024;-86
2022/02/27 09:00:38;;;;;;;20.52;4.80;;;;;;;11.62;51.31;101087.56;5054868;28;20064;-84
2022/02/27 09:03:04;;;;;;;21.70;4.38;;;;;;;11.36;51.93;101094.41;5054528;28;20036;-85
2022/02/27 09:05:30;;;;;;;11.38;4.88;;;;;;;11.16;52.38;101097.38;5055391;28;20064;-84
2022/02/27 09:07:55;;;;;;;15.15;4.95;;;;;;;11.03;53.07;101111.25;5052994;28;20064;-84
2022/02/27 09:10:21;;;;;;;20.70;5.30;;;;;;;11.09;53.24;101110.88;5054926;28;20149;-86
2022/02/27 09:12:46;;;;;;;14.80;4.72;;;;;;;11.35;52.64;101100.59;5053447;28;20474;-85
2022/02/27 09:15:13;;;;;;;15.35;4.72;;;;;;;11.59;52.42;101097.41;5054152;28;20040;-85
2022/02/27 09:17:39;;;;;;;21.30;5.43;;;;;;;11.49;52.56;101092.75;5053029;28;20028;-84
2022/02/27 09:20:06;;;;;;;14.10;5.05;;;;;;;11.69;52.38;101096.78;5052414;28;20046;-86
2022/02/27 09:22:32;;;;;;;20.65;5.28;;;;;;;11.61;52.62;101104.31;5053225;28;20033;-88
2022/02/27 09:24:58;;;;;;;10.07;4.40;;;;;;;11.63;52.57;101117.34;5053437;28;20079;-87
2022/02/27 09:27:23;;;;;;;16.10;5.63;;;;;;;11.88;52.08;101108.78;5058689;28;20171;-88
2022/02/27 09:29:48;;;;;;;14.60;5.45;;;;;;;11.85;52.14;101119.50;5052377;28;20120;-87
2022/02/27 09:32:13;;;;;;;14.05;5.10;;;;;;;12.12;51.62;101130.13;5053434;28;20049;-87
2022/02/27 09:34:39;;;;;;;19.13;5.40;;;;;;;12.08;51.46;101128.63;5054265;28;20108;-87
2022/02/27 09:37:05;;;;;;;15.50;4.60;;;;;;;11.78;52.38;101132.19;5054410;28;20506;-88
2022/02/27 09:39:30;;;;;;;18.30;5.90;;;;;;;12.03;52.07;101130.72;5053477;28;20036;-88
2022/02/27 09:41:57;;;;;;;15.75;5.00;;;;;;;12.42;51.56;101139.66;5053484;28;20036;-86
2022/02/27 09:44:23;;;;;;;17.70;4.43;;;;;;;12.45;51.26;101137.66;5052224;28;20504;-86
2022/02/27 09:46:49;;;;;;;16.35;5.10;;;;;;;12.66;51.13;101130.19;5051832;28;20029;-86
2022/02/27 09:49:15;;;;;;;13.70;4.85;;;;;;;12.47;51.13;101140.22;5053438;28;20025;-86
2022/02/27 09:51:41;;;;;;;19.40;4.28;;;;;;;12.40;51.38;101144.16;5052432;28;20029;-88
2022/02/27 09:54:08;;;;;;;15.88;4.70;;;;;;;12.08;51.88;101129.50;5050694;28;20028;-86
2022/02/27 09:56:34;;;;;;;17.67;4.93;;;;;;;12.61;51.57;101131.41;5052261;28;20024;-86
2022/02/27 09:59:00;;;;;;;16.92;4.38;;;;;;;12.79;50.93;101134.63;5054060;28;20025;-86
2022/02/27 10:01:25;;;;;;;14.77;4.50;;;;;;;13.14;49.78;101149.91;5052940;28;20028;-87
2022/02/27 10:03:51;;;;;;;15.38;4.72;;;;;;;13.15;49.84;101141.03;5052626;28;20021;-87
2022/02/27 10:06:18;;;;;;;18.58;5.32;;;;;;;12.83;50.53;101136.13;5055803;28;20119;-86
2022/02/27 10:08:43;;;;;;;11.77;4.05;;;;;;;13.34;49.93;101140.69;5073720;28;20020;-86
2022/02/27 10:11:27;;;;;;;15.32;4.22;;;;;;;13.13;50.50;101151.72;5063810;28;20024;-87
2022/02/27 10:13:54;;;;;;;15.32;4.15;;;;;;;13.22;50.43;101147.59;5062468;28;20162;-88
2022/02/27 10:16:28;;;;;;;17.52;4.10;;;;;;;13.28;50.07;101153.31;5056305;28;20052;-86
2022/02/27 10:18:56;;;;;;;13.30;3.83;;;;;;;13.40;49.91;101149.03;5063088;28;20021;-86
2022/02/27 10:21:21;;;;;;;14.35;5.00;;;;;;;13.51;49.72;101143.03;5060984;28;20021;-87
2022/02/27 10:24:04;;;;;;;12.35;4.40;;;;;;;13.33;49.80;101149.53;5062449;28;20040;-87
2022/02/27 10:26:32;;;;;;;23.13;4.40;;;;;;;13.60;49.31;101152.09;5049657;28;20029;-86
2022/02/27 10:29:17;;;;;;;17.35;4.75;;;;;;;13.79;48.76;101144.59;5066206;28;20026;-87
2022/02/27 10:31:50;;;;;;;10.98;3.92;;;;;;;13.59;49.40;101151.25;5057866;28;20029;-87
2022/02/27 10:34:26;;;;;;;11.43;4.95;;;;;;;13.79;48.97;101141.97;5048352;28;20498;-86
2022/02/27 10:36:56;;;;;;;18.10;4.80;;;;;;;13.43;49.56;101138.28;5048882;28;20028;-87
2022/02/27 10:39:46;;;;;;;19.17;4.90;;;;;;;13.50;49.02;101146.59;5033305;28;20025;-87
2022/02/27 10:42:29;;;;;;;13.82;4.10;;;;;;;13.81;48.86;101144.50;5050901;28;20016;-86
2022/02/27 10:45:03;;;;;;;21.90;4.40;;;;;;;14.33;48.10;101126.75;5050155;28;20020;-88
2022/02/27 10:47:31;;;;;;;19.67;4.60;;;;;;;14.42;47.92;101136.66;5047024;28;20096;-86
2022/02/27 10:50:02;;;;;;;15.27;3.78;;;;;;;15.79;46.00;101131.69;5054098;28;20021;-87
2022/02/27 10:52:30;;;;;;;13.02;4.00;;;;;;;16.07;44.73;101127.69;5053647;28;20399;-88
2022/02/27 10:54:58;;;;;;;16.33;5.00;;;;;;;16.24;44.01;101118.41;5059924;28;20029;-88
2022/02/27 10:57:27;;;;;;;13.48;4.20;;;;;;;15.86;44.60;101124.97;5056048;28;20025;-88
2022/02/27 10:59:54;;;;;;;13.65;3.55;;;;;;;14.95;46.11;101118.66;5050936;28;20511;-89
2022/02/27 11:02:20;;;;;;;15.20;4.68;;;;;;;15.61;44.91;101131.31;5055072;28;20036;-87
2022/02/27 11:04:48;;;;;;;13.35;4.32;;;;;;;15.95;44.56;101126.03;5067710;28;20115;-87
2022/02/27 11:07:14;;;;;;;15.55;4.43;;;;;;;16.53;43.77;101121.34;5050241;28;20029;-87
2022/02/27 11:09:41;;;;;;;12.77;3.80;;;;;;;17.00;42.44;101134.31;5048119;28;20045;-88
2022/02/27 11:12:08;;;;;;;11.10;3.50;;;;;;;17.23;42.22;101113.81;5045382;28;20024;-88
2022/02/27 11:14:33;;;;;;;13.23;3.45;;;;;;;17.73;41.38;101113.97;5041965;28;20425;-89
2022/02/27 11:16:59;;;;;;;13.02;3.70;;;;;;;17.41;41.34;101096.31;5047809;28;20079;-89
2022/02/27 11:19:25;;;;;;;13.93;3.67;;;;;;;18.11;40.67;101115.09;5043237;28;20575;-88